2CO3 weather

Jackrabbit Strip
Milliken, Colorado, United States

Public forecast

Using degrees Fahrenheit for public forecast. Weather courtesy of forecast.io.

Closest aviation weather report (METAR) to Jackrabbit Strip

Closest report is Northern Colorado Regional Airport, 7.8 nm (14.5 km) NW. Retrieved 2020/02/26 18:56 UTC (19 minutes ago):

KFNL 261856Z AUTO 07006KT 10SM CLR 02/M13 A3025 RMK AO2 SLP279 T00171128 FZRANO

Closest aviation forecast (TAF) to Jackrabbit Strip

Closest forecast is Rocky Mountain Metropolitan Airport, 30.1 nm (55.8 km) SSW. Retrieved 2020/02/26 18:36 UTC (39 minutes ago):

TAF KBJC 261734Z 2618/2718 VRB03KT P6SM FEW130 FEW200 FM261900 29010KT P6SM SCT130 FM262300 26018G26KT P6SM SCT130 FM270700 26005KT P6SM SCT130 FM271600 02010KT P6SM FEW100